createdAt,value
2022-07-28T00:00:42.063Z,0
2022-07-28T00:01:42.835Z,0
2022-07-28T00:02:44.248Z,0
2022-07-28T00:04:15.894Z,0
2022-07-28T00:05:17.125Z,0
2022-07-28T00:06:17.923Z,0
2022-07-28T00:07:18.600Z,0
2022-07-28T00:08:19.480Z,0
2022-07-28T00:09:20.261Z,0
2022-07-28T00:10:21.096Z,0
2022-07-28T00:11:21.799Z,0
2022-07-28T00:12:22.517Z,0
2022-07-28T00:13:23.367Z,0
2022-07-28T00:14:24.209Z,0
2022-07-28T00:15:25.612Z,0
2022-07-28T00:16:26.450Z,0
2022-07-28T00:17:27.118Z,0
2022-07-28T00:18:28.013Z,0
2022-07-28T00:19:28.842Z,0
2022-07-28T00:20:29.750Z,0
2022-07-28T00:21:30.463Z,0
2022-07-28T00:22:31.199Z,0
2022-07-28T00:23:38.756Z,0
2022-07-28T00:24:33.412Z,0
2022-07-28T00:25:35.110Z,0
2022-07-28T00:26:35.871Z,0
2022-07-28T00:27:36.610Z,0
2022-07-28T00:28:38.146Z,0
2022-07-28T00:29:42.587Z,0
2022-07-28T00:30:39.935Z,0
2022-07-28T00:31:40.822Z,0
2022-07-28T00:32:42.083Z,0
2022-07-28T00:33:42.939Z,0
2022-07-28T00:35:15.640Z,0
2022-07-28T00:36:15.965Z,0
2022-07-28T00:37:16.646Z,0
2022-07-28T00:38:18.006Z,0
2022-07-28T00:39:18.904Z,0
2022-07-28T00:40:19.699Z,0
2022-07-28T00:41:20.437Z,0
2022-07-28T00:42:21.164Z,0
2022-07-28T00:43:21.956Z,0
2022-07-28T00:44:22.841Z,0
2022-07-28T00:45:24.153Z,0
2022-07-28T00:46:24.979Z,0
2022-07-28T00:47:25.623Z,0
2022-07-28T00:48:26.419Z,0
2022-07-28T00:49:28.203Z,0
2022-07-28T00:50:29.017Z,0
2022-07-28T00:51:29.794Z,0
2022-07-28T00:52:30.563Z,0
2022-07-28T00:53:31.358Z,0
2022-07-28T00:54:32.300Z,0
2022-07-28T00:55:33.643Z,0
2022-07-28T00:56:34.418Z,0
2022-07-28T00:57:35.183Z,0
2022-07-28T00:58:36.616Z,0
2022-07-28T00:59:37.465Z,0
2022-07-28T01:00:38.289Z,0
2022-07-28T01:01:39.235Z,0
2022-07-28T01:02:40.611Z,0
2022-07-28T01:03:41.266Z,0
2022-07-28T01:04:42.129Z,0
2022-07-28T01:05:44.420Z,0
2022-07-28T01:07:15.332Z,0
2022-07-28T01:08:16.092Z,0
2022-07-28T01:09:16.930Z,0
2022-07-28T01:10:17.814Z,0
2022-07-28T01:11:18.706Z,0
2022-07-28T01:12:19.397Z,0
2022-07-28T01:13:20.150Z,0
2022-07-28T01:14:20.890Z,0
2022-07-28T01:15:21.820Z,0
2022-07-28T01:16:23.781Z,0
2022-07-28T01:17:24.230Z,0
2022-07-28T01:18:24.987Z,0
2022-07-28T01:19:25.744Z,0
2022-07-28T01:20:26.625Z,0
2022-07-28T01:21:27.470Z,0
2022-07-28T01:22:28.275Z,0
2022-07-28T01:23:28.990Z,0
2022-07-28T01:24:29.771Z,0
2022-07-28T01:25:31.208Z,0
2022-07-28T01:26:32.643Z,0
2022-07-28T01:27:33.439Z,0
2022-07-28T01:28:35.100Z,0
2022-07-28T01:29:35.891Z,0
2022-07-28T01:30:36.741Z,0
2022-07-28T01:31:37.671Z,0
2022-07-28T01:32:39.143Z,0
2022-07-28T01:33:39.903Z,0
2022-07-28T01:34:40.727Z,0
2022-07-28T01:35:41.934Z,0
2022-07-28T01:37:14.112Z,0
2022-07-28T01:38:14.932Z,0
2022-07-28T01:39:15.785Z,0
2022-07-28T01:40:16.680Z,0
2022-07-28T01:41:17.598Z,0
2022-07-28T01:42:18.501Z,0
2022-07-28T01:43:19.409Z,0
2022-07-28T01:44:20.186Z,0
2022-07-28T01:45:20.979Z,0
2022-07-28T01:46:22.768Z,0
2022-07-28T01:47:23.460Z,0
2022-07-28T01:48:24.277Z,0
2022-07-28T01:49:25.106Z,0
2022-07-28T01:50:26.119Z,0
2022-07-28T01:51:26.820Z,0
2022-07-28T01:52:27.644Z,0
2022-07-28T01:53:28.423Z,0
2022-07-28T01:54:29.157Z,0
2022-07-28T01:55:29.963Z,0
2022-07-28T01:56:31.734Z,0
2022-07-28T01:57:32.539Z,0
2022-07-28T01:58:33.365Z,0
2022-07-28T01:59:35.028Z,0
2022-07-28T02:00:35.802Z,0
2022-07-28T02:01:36.807Z,0
2022-07-28T02:02:38.161Z,0
2022-07-28T02:03:39.028Z,0
2022-07-28T02:04:39.789Z,0
2022-07-28T02:05:40.564Z,0
2022-07-28T02:06:42.169Z,0
2022-07-28T02:08:13.441Z,0
2022-07-28T02:09:14.268Z,0
2022-07-28T02:10:14.988Z,0
2022-07-28T02:11:15.846Z,0
2022-07-28T02:12:16.770Z,0
2022-07-28T02:13:18.194Z,0
2022-07-28T02:14:18.968Z,0
2022-07-28T02:15:19.724Z,0
2022-07-28T02:16:21.277Z,0
2022-07-28T02:17:22.040Z,0
2022-07-28T02:18:22.823Z,0
2022-07-28T02:19:23.604Z,0
2022-07-28T02:20:24.339Z,0
2022-07-28T02:21:25.129Z,0
2022-07-28T02:22:26.089Z,0
2022-07-28T02:23:26.875Z,0
2022-07-28T02:24:27.641Z,0
2022-07-28T02:25:28.351Z,0
2022-07-28T02:26:30.042Z,0
2022-07-28T02:27:30.900Z,0
2022-07-28T02:28:32.655Z,0
2022-07-28T02:29:50.135Z,0
2022-07-28T02:30:34.258Z,0
2022-07-28T02:31:35.069Z,0
2022-07-28T02:32:36.806Z,0
2022-07-28T02:33:59.779Z,0
2022-07-28T02:34:38.521Z,0
2022-07-28T02:35:39.314Z,0
2022-07-28T02:36:41.552Z,0
2022-07-28T02:37:42.678Z,0
2022-07-28T02:39:14.018Z,0
2022-07-28T02:40:14.872Z,0
2022-07-28T02:41:15.717Z,0
2022-07-28T02:42:17.188Z,0
2022-07-28T02:43:18.140Z,0
2022-07-28T02:44:18.977Z,0
2022-07-28T02:45:19.806Z,0
2022-07-28T02:46:21.155Z,0
2022-07-28T02:47:22.022Z,0
2022-07-28T02:48:22.880Z,0
2022-07-28T02:49:24.743Z,0
2022-07-28T02:50:25.396Z,0
2022-07-28T02:51:26.278Z,0
2022-07-28T02:52:27.034Z,0
2022-07-28T02:53:27.951Z,0
2022-07-28T02:54:28.826Z,0
2022-07-28T02:55:29.611Z,0
2022-07-28T02:56:31.134Z,0
2022-07-28T02:57:32.007Z,0
2022-07-28T02:58:32.939Z,0
2022-07-28T02:59:34.618Z,0
2022-07-28T03:00:35.415Z,0
2022-07-28T03:01:36.270Z,0
2022-07-28T03:02:37.011Z,0
2022-07-28T03:03:41.364Z,0
2022-07-28T03:04:38.866Z,0
2022-07-28T03:05:39.668Z,0
2022-07-28T03:06:41.064Z,0
2022-07-28T03:08:12.993Z,0
2022-07-28T03:09:13.883Z,0
2022-07-28T03:10:14.820Z,0
2022-07-28T03:11:15.728Z,0
2022-07-28T03:12:16.495Z,0
2022-07-28T03:13:17.407Z,0
2022-07-28T03:14:18.428Z,0
2022-07-28T03:15:19.313Z,0
2022-07-28T03:16:20.685Z,0
2022-07-28T03:17:21.504Z,0
2022-07-28T03:18:22.217Z,0
2022-07-28T03:19:23.066Z,0
2022-07-28T03:20:23.960Z,0
2022-07-28T03:21:24.745Z,0
2022-07-28T03:22:25.494Z,0
2022-07-28T03:23:27.117Z,0
2022-07-28T03:24:27.994Z,0
2022-07-28T03:25:28.868Z,0
2022-07-28T03:26:30.176Z,0
2022-07-28T03:27:31.038Z,0
2022-07-28T03:28:32.668Z,0
2022-07-28T03:29:33.574Z,0
2022-07-28T03:30:34.446Z,0
2022-07-28T03:31:35.211Z,0
2022-07-28T03:32:36.550Z,0
2022-07-28T03:33:37.391Z,0
2022-07-28T03:34:38.331Z,0
2022-07-28T03:35:39.182Z,0
2022-07-28T03:36:40.755Z,0
2022-07-28T03:37:41.876Z,0
2022-07-28T03:39:13.218Z,0
2022-07-28T03:40:14.138Z,0
2022-07-28T03:41:14.919Z,0
2022-07-28T03:42:15.744Z,0
2022-07-28T03:43:16.489Z,4
2022-07-28T03:44:28.119Z,0
2022-07-28T03:45:18.421Z,0
2022-07-28T03:46:19.425Z,4
2022-07-28T03:47:20.962Z,4
2022-07-28T03:48:21.710Z,4
2022-07-28T03:49:22.677Z,4
2022-07-28T03:50:23.403Z,4
2022-07-28T03:51:24.232Z,4
2022-07-28T03:52:24.992Z,4
2022-07-28T03:53:26.536Z,8
2022-07-28T03:54:27.350Z,8
2022-07-28T03:55:28.284Z,12
2022-07-28T03:56:29.118Z,12
2022-07-28T03:57:30.506Z,12
2022-07-28T03:58:32.003Z,16
2022-07-28T03:59:32.851Z,20
2022-07-28T04:00:33.830Z,24
2022-07-28T04:01:34.710Z,24
2022-07-28T04:02:35.585Z,24
2022-07-28T04:03:43.615Z,32
2022-07-28T04:04:37.885Z,32
2022-07-28T04:05:38.815Z,36
2022-07-28T04:06:40.198Z,40
2022-07-28T04:07:41.717Z,48
2022-07-28T04:09:13.553Z,56
2022-07-28T04:10:14.430Z,60
2022-07-28T04:11:15.318Z,64
2022-07-28T04:12:16.228Z,68
2022-07-28T04:13:16.988Z,76
2022-07-28T04:14:18.236Z,80
2022-07-28T04:15:18.589Z,88
2022-07-28T04:16:19.580Z,92
2022-07-28T04:17:21.101Z,100
2022-07-28T04:18:21.870Z,104
2022-07-28T04:19:22.669Z,108
2022-07-28T04:20:23.574Z,116
2022-07-28T04:21:24.520Z,124
2022-07-28T04:22:25.569Z,128
2022-07-28T04:23:27.042Z,136
2022-07-28T04:24:27.760Z,144
2022-07-28T04:25:28.643Z,148
2022-07-28T04:26:29.526Z,152
2022-07-28T04:27:31.148Z,160
2022-07-28T04:28:31.932Z,168
2022-07-28T04:29:33.678Z,176
2022-07-28T04:30:34.653Z,180
2022-07-28T04:31:35.504Z,188
2022-07-28T04:32:36.328Z,192
2022-07-28T04:33:37.093Z,200
2022-07-28T04:34:38.677Z,208
2022-07-28T04:35:39.570Z,212
2022-07-28T04:36:40.563Z,224
2022-07-28T04:38:12.517Z,232
2022-07-28T04:39:13.259Z,244
2022-07-28T04:40:14.115Z,248
2022-07-28T04:41:14.983Z,256
2022-07-28T04:42:15.994Z,264
2022-07-28T04:43:16.771Z,268
2022-07-28T04:44:17.909Z,276
2022-07-28T04:45:18.226Z,284
2022-07-28T04:46:19.206Z,288
2022-07-28T04:47:20.685Z,296
2022-07-28T04:48:21.506Z,304
2022-07-28T04:49:22.327Z,308
2022-07-28T04:50:23.053Z,316
2022-07-28T04:51:23.900Z,324
2022-07-28T04:52:24.816Z,332
2022-07-28T04:53:26.200Z,340
2022-07-28T04:54:27.001Z,344
2022-07-28T04:55:27.712Z,356
2022-07-28T04:56:28.555Z,360
2022-07-28T04:57:30.178Z,368
2022-07-28T04:58:31.159Z,380
2022-07-28T04:59:31.805Z,388
2022-07-28T05:00:33.517Z,396
2022-07-28T05:01:34.469Z,408
2022-07-28T05:02:35.370Z,420
2022-07-28T05:03:36.586Z,428
2022-07-28T05:04:37.789Z,440
2022-07-28T05:05:38.499Z,448
2022-07-28T05:06:39.352Z,456
2022-07-28T05:08:11.736Z,468
2022-07-28T05:09:13.103Z,484
2022-07-28T05:10:13.909Z,500
2022-07-28T05:11:15.790Z,504
2022-07-28T05:12:16.688Z,512
2022-07-28T05:13:18.262Z,552
2022-07-28T05:14:19.056Z,564
2022-07-28T05:15:19.859Z,528
2022-07-28T05:16:20.825Z,512
2022-07-28T05:17:22.158Z,512
2022-07-28T05:18:22.975Z,516
2022-07-28T05:19:23.799Z,524
2022-07-28T05:20:24.580Z,528
2022-07-28T05:21:25.415Z,536
2022-07-28T05:22:26.347Z,548
2022-07-28T05:23:27.259Z,552
2022-07-28T05:24:28.132Z,556
2022-07-28T05:25:29.669Z,564
2022-07-28T05:26:30.508Z,576
2022-07-28T05:27:32.198Z,584
2022-07-28T05:28:33.032Z,588
2022-07-28T05:29:47.314Z,600
2022-07-28T05:30:35.642Z,604
2022-07-28T05:31:36.520Z,604
2022-07-28T05:32:37.332Z,616
2022-07-28T05:33:39.206Z,560
2022-07-28T05:34:40.415Z,496
2022-07-28T05:36:11.707Z,600
2022-07-28T05:37:13.179Z,600
2022-07-28T05:38:14.111Z,496
2022-07-28T05:39:14.953Z,500
2022-07-28T05:40:15.724Z,632
2022-07-28T05:41:16.559Z,544
2022-07-28T05:42:17.454Z,584
2022-07-28T05:43:18.314Z,688
2022-07-28T05:44:19.225Z,704
2022-07-28T05:45:19.961Z,712
2022-07-28T05:46:20.804Z,704
2022-07-28T05:47:22.221Z,700
2022-07-28T05:48:23.016Z,664
2022-07-28T05:49:23.988Z,592
2022-07-28T05:50:24.700Z,556
2022-07-28T05:51:25.536Z,592
2022-07-28T05:52:26.371Z,592
2022-07-28T05:53:27.259Z,476
2022-07-28T05:54:28.204Z,460
2022-07-28T05:55:29.728Z,468
2022-07-28T05:56:30.565Z,476
2022-07-28T05:57:32.225Z,532
2022-07-28T05:58:33.029Z,680
2022-07-28T05:59:33.841Z,736
2022-07-28T06:00:35.562Z,748
2022-07-28T06:01:36.472Z,756
2022-07-28T06:02:37.350Z,752
2022-07-28T06:03:42.382Z,760
2022-07-28T06:04:40.085Z,760
2022-07-28T06:06:15.637Z,764
2022-07-28T06:07:12.430Z,768
2022-07-28T06:08:14.020Z,772
2022-07-28T06:09:14.856Z,772
2022-07-28T06:10:15.691Z,780
2022-07-28T06:11:22.374Z,780
2022-07-28T06:12:17.334Z,784
2022-07-28T06:13:18.245Z,784
2022-07-28T06:14:19.528Z,788
2022-07-28T06:15:20.763Z,784
2022-07-28T06:16:21.669Z,780
2022-07-28T06:17:23.178Z,788
2022-07-28T06:18:23.978Z,700
2022-07-28T06:19:24.881Z,648
2022-07-28T06:20:25.813Z,780
2022-07-28T06:21:26.552Z,616
2022-07-28T06:22:27.341Z,524
2022-07-28T06:23:28.201Z,544
2022-07-28T06:24:29.088Z,532
2022-07-28T06:25:30.010Z,532
2022-07-28T06:26:31.619Z,628
2022-07-28T06:27:33.171Z,580
2022-07-28T06:28:33.998Z,800
2022-07-28T06:29:34.924Z,764
2022-07-28T06:30:36.715Z,804
2022-07-28T06:31:37.511Z,816
2022-07-28T06:32:38.235Z,812
2022-07-28T06:34:10.605Z,820
2022-07-28T06:35:11.600Z,812
2022-07-28T06:36:12.519Z,820
2022-07-28T06:37:13.386Z,820
2022-07-28T06:38:15.221Z,824
2022-07-28T06:39:16.119Z,824
2022-07-28T06:40:17.147Z,820
2022-07-28T06:41:18.003Z,828
2022-07-28T06:42:18.768Z,824
2022-07-28T06:43:19.532Z,820
2022-07-28T06:44:20.678Z,824
2022-07-28T06:45:21.831Z,828
2022-07-28T06:46:22.325Z,832
2022-07-28T06:47:22.876Z,836
2022-07-28T06:48:28.927Z,836
2022-07-28T06:49:25.562Z,844
2022-07-28T06:50:27.167Z,844
2022-07-28T06:51:27.317Z,848
2022-07-28T06:52:28.096Z,852
2022-07-28T06:53:33.629Z,852
2022-07-28T06:54:30.729Z,852
2022-07-28T06:55:35.466Z,856
2022-07-28T06:56:32.464Z,856
2022-07-28T06:57:33.831Z,860
2022-07-28T06:58:34.624Z,868
2022-07-28T06:59:35.698Z,868
2022-07-28T07:00:36.675Z,872
2022-07-28T07:01:37.498Z,876
2022-07-28T07:02:38.273Z,876
2022-07-28T07:04:10.195Z,876
2022-07-28T07:05:10.965Z,880
2022-07-28T07:06:11.816Z,880
2022-07-28T07:07:16.841Z,880
2022-07-28T07:08:14.074Z,880
2022-07-28T07:09:14.920Z,880
2022-07-28T07:10:15.952Z,880
2022-07-28T07:11:16.813Z,880
2022-07-28T07:12:17.651Z,880
2022-07-28T07:13:18.369Z,880
2022-07-28T07:14:19.448Z,880
2022-07-28T07:15:20.151Z,880
2022-07-28T07:16:21.127Z,884
2022-07-28T07:17:22.753Z,884
2022-07-28T07:18:24.192Z,880
2022-07-28T07:19:25.056Z,880
2022-07-28T07:20:26.197Z,884
2022-07-28T07:21:27.083Z,888
2022-07-28T07:22:28.219Z,888
2022-07-28T07:23:29.627Z,888
2022-07-28T07:24:30.559Z,892
2022-07-28T07:25:31.539Z,892
2022-07-28T07:26:32.576Z,896
2022-07-28T07:27:33.748Z,896
2022-07-28T07:28:35.212Z,900
2022-07-28T07:29:36.094Z,904
2022-07-28T07:30:37.013Z,904
2022-07-28T07:31:37.918Z,908
2022-07-28T07:33:10.710Z,904
2022-07-28T07:34:11.321Z,904
2022-07-28T07:35:13.249Z,908
2022-07-28T07:36:14.177Z,908
2022-07-28T07:37:15.075Z,908
2022-07-28T07:38:16.894Z,908
2022-07-28T07:39:17.711Z,908
2022-07-28T07:40:18.641Z,908
2022-07-28T07:41:19.473Z,908
2022-07-28T07:42:20.302Z,908
2022-07-28T07:43:21.107Z,908
2022-07-28T07:44:21.890Z,908
2022-07-28T07:45:23.740Z,912
2022-07-28T07:46:24.647Z,912
2022-07-28T07:47:25.418Z,908
2022-07-28T07:48:27.120Z,912
2022-07-28T07:49:45.626Z,912
2022-07-28T07:50:28.739Z,912
2022-07-28T07:51:29.688Z,912
2022-07-28T07:52:30.537Z,912
2022-07-28T07:53:31.356Z,916
2022-07-28T07:54:32.764Z,920
2022-07-28T07:55:34.448Z,920
2022-07-28T07:56:34.528Z,920
2022-07-28T07:57:35.386Z,924
2022-07-28T07:58:37.130Z,924
2022-07-28T07:59:37.872Z,936
2022-07-28T08:01:10.236Z,940
2022-07-28T08:02:11.521Z,940
2022-07-28T08:03:12.198Z,940
2022-07-28T08:04:14.111Z,948
2022-07-28T08:05:14.576Z,952
2022-07-28T08:06:15.570Z,952
2022-07-28T08:07:16.433Z,940
2022-07-28T08:08:18.204Z,924
2022-07-28T08:09:19.070Z,912
2022-07-28T08:10:19.917Z,904
2022-07-28T08:11:21.018Z,904
2022-07-28T08:12:25.226Z,908
2022-07-28T08:13:23.281Z,904
2022-07-28T08:14:24.189Z,904
2022-07-28T08:15:25.264Z,888
2022-07-28T08:16:26.283Z,892
2022-07-28T08:17:27.109Z,900
2022-07-28T08:18:28.714Z,904
2022-07-28T08:19:29.691Z,900
2022-07-28T08:20:30.749Z,900
2022-07-28T08:21:32.233Z,876
2022-07-28T08:22:34.249Z,908
2022-07-28T08:23:35.100Z,880
2022-07-28T08:24:36.040Z,852
2022-07-28T08:25:36.875Z,828
2022-07-28T08:26:38.131Z,896
2022-07-28T08:28:10.191Z,904
2022-07-28T08:29:10.980Z,896
2022-07-28T08:30:12.702Z,912
2022-07-28T08:31:13.562Z,908
2022-07-28T08:32:14.322Z,908
2022-07-28T08:33:15.696Z,920
2022-07-28T08:34:31.574Z,924
2022-07-28T08:35:32.836Z,932
2022-07-28T08:36:18.277Z,928
2022-07-28T08:37:19.062Z,932
2022-07-28T08:38:20.729Z,892
2022-07-28T08:39:21.637Z,892
2022-07-28T08:40:27.153Z,924
2022-07-28T08:41:23.368Z,956
2022-07-28T08:42:24.286Z,964
2022-07-28T08:43:25.133Z,972
2022-07-28T08:44:26.043Z,976
2022-07-28T08:45:26.947Z,980
2022-07-28T08:46:27.836Z,984
2022-07-28T08:47:35.923Z,992
2022-07-28T08:48:30.253Z,1004
2022-07-28T08:49:31.121Z,1016
2022-07-28T08:50:32.055Z,1028
2022-07-28T08:51:32.875Z,1048
2022-07-28T08:52:33.682Z,1060
2022-07-28T08:53:35.174Z,1076
2022-07-28T08:54:36.094Z,1092
2022-07-28T08:55:36.999Z,1132
2022-07-28T08:57:08.533Z,1156
2022-07-28T08:58:10.203Z,1184
2022-07-28T08:59:11.752Z,1204
2022-07-28T09:00:12.620Z,1228
2022-07-28T09:01:13.527Z,1256
2022-07-28T09:02:14.411Z,1280
2022-07-28T09:03:15.110Z,1296
2022-07-28T09:04:17.062Z,1300
2022-07-28T09:05:17.709Z,1296
2022-07-28T09:06:18.607Z,1284
2022-07-28T09:07:19.348Z,1280
2022-07-28T09:08:20.734Z,1272
2022-07-28T09:09:21.670Z,1260
2022-07-28T09:10:23.222Z,1256
2022-07-28T09:11:24.161Z,1244
2022-07-28T09:12:27.271Z,1232
2022-07-28T09:13:25.738Z,1220
2022-07-28T09:14:26.585Z,1212
2022-07-28T09:15:27.496Z,1200
2022-07-28T09:16:28.427Z,1204
2022-07-28T09:17:29.054Z,1216
2022-07-28T09:18:30.810Z,1216
2022-07-28T09:19:34.367Z,1204
2022-07-28T09:20:32.593Z,1208
2022-07-28T09:21:33.467Z,1220
2022-07-28T09:22:34.179Z,1220
2022-07-28T09:23:42.407Z,1164
2022-07-28T09:24:36.676Z,1212
2022-07-28T09:26:38.251Z,1136
2022-07-28T09:28:09.779Z,1032
2022-07-28T09:29:11.260Z,1204
2022-07-28T09:30:12.282Z,1224
2022-07-28T09:31:13.238Z,1156
2022-07-28T09:32:13.990Z,1116
2022-07-28T09:33:41.855Z,1148
2022-07-28T09:34:16.770Z,1220
2022-07-28T09:35:18.185Z,1232
2022-07-28T09:36:19.067Z,1200
2022-07-28T09:37:24.822Z,1212
2022-07-28T09:38:21.230Z,1200
2022-07-28T09:39:22.124Z,1188
2022-07-28T09:40:23.042Z,1184
2022-07-28T09:41:24.640Z,1188
2022-07-28T09:42:25.450Z,1188
2022-07-28T09:43:26.155Z,1148
2022-07-28T09:44:27.039Z,1180
2022-07-28T09:45:27.819Z,1124
2022-07-28T09:46:29.585Z,1176
2022-07-28T09:47:29.653Z,1176
2022-07-28T09:48:30.367Z,1180
2022-07-28T09:49:31.802Z,1176
2022-07-28T09:50:32.546Z,1172
2022-07-28T09:51:33.435Z,1132
2022-07-28T09:52:34.260Z,1176
2022-07-28T09:53:35.721Z,1140
2022-07-28T09:54:40.747Z,1136
2022-07-28T09:56:08.557Z,1136
2022-07-28T09:57:09.389Z,1144
2022-07-28T09:58:11.618Z,1140
2022-07-28T09:59:14.577Z,1132
2022-07-28T10:00:14.314Z,1140
2022-07-28T10:01:15.353Z,1108
2022-07-28T10:02:16.331Z,1120
2022-07-28T10:03:17.253Z,1088
2022-07-28T10:04:19.292Z,1068
2022-07-28T10:05:19.826Z,1052
2022-07-28T10:06:20.771Z,1044
2022-07-28T10:07:21.616Z,1028
2022-07-28T10:08:22.515Z,1020
2022-07-28T10:09:24.352Z,1048
2022-07-28T10:10:25.259Z,1048
2022-07-28T10:11:26.167Z,1052
2022-07-28T10:12:27.061Z,1052
2022-07-28T10:13:28.851Z,1048
2022-07-28T10:14:29.746Z,1032
2022-07-28T10:15:31.141Z,1048
2022-07-28T10:16:31.722Z,1048
2022-07-28T10:17:32.573Z,1048
2022-07-28T10:18:33.509Z,1052
2022-07-28T10:19:35.443Z,1052
2022-07-28T10:20:36.794Z,1044
2022-07-28T10:22:08.129Z,1052
2022-07-28T10:23:09.757Z,1048
2022-07-28T10:24:10.739Z,1052
2022-07-28T10:25:11.712Z,1060
2022-07-28T10:26:13.190Z,1060
2022-07-28T10:27:14.299Z,1060
2022-07-28T10:28:15.201Z,1068
2022-07-28T10:29:16.860Z,1072
2022-07-28T10:30:17.882Z,1072
2022-07-28T10:31:18.874Z,1076
2022-07-28T10:32:19.600Z,1080
2022-07-28T10:33:20.510Z,1084
2022-07-28T10:34:24.668Z,1092
2022-07-28T10:35:23.332Z,1092
2022-07-28T10:36:24.212Z,1096
2022-07-28T10:37:25.023Z,1104
2022-07-28T10:38:25.930Z,1108
2022-07-28T10:39:27.798Z,1112
2022-07-28T10:40:28.684Z,1112
2022-07-28T10:41:30.078Z,1116
2022-07-28T10:42:30.352Z,1120
2022-07-28T10:43:31.768Z,1124
2022-07-28T10:44:32.799Z,1132
2022-07-28T10:45:55.289Z,1136
2022-07-28T10:46:34.634Z,1140
2022-07-28T10:47:36.410Z,1148
2022-07-28T10:49:09.006Z,1156
2022-07-28T10:50:09.988Z,1160
2022-07-28T10:51:10.820Z,1160
2022-07-28T10:52:30.411Z,1160
2022-07-28T10:53:12.772Z,1168
2022-07-28T10:54:17.660Z,1172
2022-07-28T10:55:14.757Z,1176
2022-07-28T10:56:15.610Z,1176
2022-07-28T10:57:16.528Z,1180
2022-07-28T10:58:17.556Z,1184
2022-07-28T10:59:19.377Z,1188
2022-07-28T11:00:26.564Z,1188
2022-07-28T11:01:47.256Z,1200
2022-07-28T11:02:23.831Z,1204
2022-07-28T11:03:25.552Z,1208
2022-07-28T11:04:29.241Z,1216
2022-07-28T11:05:27.230Z,1216
2022-07-28T11:06:28.038Z,1220
2022-07-28T11:07:28.881Z,1224
2022-07-28T11:08:30.272Z,1220
2022-07-28T11:09:31.141Z,1224
2022-07-28T11:10:32.800Z,1224
2022-07-28T11:11:33.641Z,1224
2022-07-28T11:12:34.495Z,1244
2022-07-28T11:14:06.788Z,1252
2022-07-28T11:15:15.909Z,1264
2022-07-28T11:16:08.481Z,1284
2022-07-28T11:17:10.788Z,1300
2022-07-28T11:18:10.197Z,1308
2022-07-28T11:19:40.651Z,1312
2022-07-28T11:20:24.707Z,1308
2022-07-28T11:21:16.634Z,1296
2022-07-28T11:22:14.554Z,1272
2022-07-28T11:23:15.418Z,1224
2022-07-28T11:24:17.846Z,1264
2022-07-28T11:25:21.000Z,1284
2022-07-28T11:26:18.255Z,1288
2022-07-28T11:27:19.089Z,1292
2022-07-28T11:28:19.971Z,1296
2022-07-28T11:29:20.851Z,1300
2022-07-28T11:30:22.391Z,1312
2022-07-28T11:31:23.906Z,1316
2022-07-28T11:32:27.130Z,1320
2022-07-28T11:33:26.266Z,1328
2022-07-28T11:34:27.108Z,1336
2022-07-28T11:35:27.950Z,1344
2022-07-28T11:36:28.909Z,1352
2022-07-28T11:37:29.838Z,1360
2022-07-28T11:38:31.280Z,1372
2022-07-28T11:39:43.476Z,1384
2022-07-28T11:40:33.824Z,1396
2022-07-28T11:41:34.718Z,1408
2022-07-28T11:42:35.886Z,1432
2022-07-28T11:44:07.089Z,1440
2022-07-28T11:45:07.911Z,1452
2022-07-28T11:46:11.379Z,1460
2022-07-28T11:47:09.599Z,1480
2022-07-28T11:48:10.412Z,1500
2022-07-28T11:49:14.871Z,1512
2022-07-28T11:50:13.395Z,1520
2022-07-28T11:51:14.129Z,1532
2022-07-28T11:52:16.651Z,1544
2022-07-28T11:53:16.546Z,1560
2022-07-28T11:54:17.570Z,1580
2022-07-28T11:55:18.199Z,1592
2022-07-28T11:56:19.044Z,1600
2022-07-28T11:57:19.898Z,1616
2022-07-28T11:58:20.823Z,1632
2022-07-28T11:59:21.719Z,1648
2022-07-28T12:00:22.692Z,1680
2022-07-28T12:01:24.292Z,1712
2022-07-28T12:02:25.327Z,1736
2022-07-28T12:03:38.307Z,1772
2022-07-28T12:04:26.997Z,1816
2022-07-28T12:05:28.740Z,1864
2022-07-28T12:06:29.930Z,1896
2022-07-28T12:07:30.692Z,1928
2022-07-28T12:08:31.495Z,1932
2022-07-28T12:09:41.575Z,928
2022-07-28T12:10:54.478Z,940
2022-07-28T12:11:34.597Z,948
2022-07-28T12:13:06.795Z,960
2022-07-28T12:14:07.589Z,980
2022-07-28T12:15:08.424Z,1000
2022-07-28T12:16:09.274Z,1020
2022-07-28T12:17:10.811Z,1084
2022-07-28T12:18:11.727Z,1112
2022-07-28T12:19:12.495Z,1144
2022-07-28T12:20:15.272Z,1176
2022-07-28T12:21:14.723Z,1212
2022-07-28T12:22:15.927Z,1240
2022-07-28T12:23:16.557Z,1256
2022-07-28T12:24:19.135Z,1280
2022-07-28T12:25:20.005Z,1292
2022-07-28T12:26:19.177Z,1308
2022-07-28T12:27:20.147Z,1332
2022-07-28T12:28:21.202Z,1368
2022-07-28T12:29:22.000Z,1392
2022-07-28T12:30:23.838Z,1388
2022-07-28T12:31:25.950Z,1368
2022-07-28T12:32:26.809Z,1360
2022-07-28T12:33:29.910Z,1352
2022-07-28T12:34:28.735Z,1268
2022-07-28T12:35:30.318Z,1344
2022-07-28T12:36:31.232Z,1332
2022-07-28T12:37:32.027Z,1284
2022-07-28T12:38:32.917Z,1180
2022-07-28T12:39:33.687Z,1296
2022-07-28T12:40:34.638Z,1408
2022-07-28T12:42:06.621Z,1484
2022-07-28T12:43:07.465Z,1524
2022-07-28T12:44:08.373Z,1556
2022-07-28T12:45:09.201Z,1604
2022-07-28T12:46:10.838Z,1636
2022-07-28T12:47:11.743Z,1648
2022-07-28T12:48:12.559Z,1664
2022-07-28T12:49:14.375Z,1664
2022-07-28T12:50:15.137Z,1656
2022-07-28T12:51:16.789Z,1616
2022-07-28T12:52:17.588Z,1620
2022-07-28T12:53:18.455Z,1640
2022-07-28T12:54:20.328Z,1704
2022-07-28T12:55:21.129Z,1744
2022-07-28T12:56:22.060Z,1796
2022-07-28T12:57:22.980Z,1792
2022-07-28T12:58:23.918Z,1784
2022-07-28T12:59:24.787Z,1740
2022-07-28T13:00:26.305Z,1856
2022-07-28T13:01:27.235Z,1916
2022-07-28T13:02:28.921Z,1932
2022-07-28T13:03:29.572Z,1880
2022-07-28T13:04:30.393Z,1928
2022-07-28T13:05:31.808Z,2072
2022-07-28T13:06:32.669Z,2092
2022-07-28T13:07:33.482Z,2020
2022-07-28T13:08:35.335Z,1944
2022-07-28T13:10:06.688Z,1952
2022-07-28T13:11:17.309Z,2024
2022-07-28T13:12:09.335Z,2084
2022-07-28T13:13:10.267Z,2156
2022-07-28T13:14:11.707Z,2136
2022-07-28T13:15:12.489Z,2240
2022-07-28T13:16:13.400Z,2284
2022-07-28T13:17:14.265Z,2308
2022-07-28T13:18:15.114Z,2268
2022-07-28T13:19:15.962Z,2232
2022-07-28T13:20:17.711Z,2272
2022-07-28T13:21:19.286Z,2216
2022-07-28T13:22:20.151Z,2144
2022-07-28T13:23:20.992Z,2060
2022-07-28T13:24:21.869Z,2252
2022-07-28T13:25:22.794Z,2268
2022-07-28T13:26:23.643Z,2332
2022-07-28T13:27:24.495Z,2260
2022-07-28T13:28:25.354Z,2080
2022-07-28T13:29:26.181Z,2204
2022-07-28T13:30:26.959Z,2452
2022-07-28T13:31:28.372Z,2544
2022-07-28T13:32:29.214Z,2692
2022-07-28T13:33:30.917Z,2840
2022-07-28T13:34:31.626Z,2940
2022-07-28T13:35:32.493Z,3044
2022-07-28T13:36:33.245Z,3140
2022-07-28T13:37:34.486Z,3296
2022-07-28T13:39:05.724Z,3348
2022-07-28T13:40:06.585Z,3032
2022-07-28T13:41:08.366Z,3384
2022-07-28T13:42:10.420Z,2764
2022-07-28T13:43:11.188Z,2748
2022-07-28T13:44:11.937Z,3336
2022-07-28T13:45:12.537Z,3388
2022-07-28T13:46:13.473Z,3444
2022-07-28T13:47:17.220Z,3328
2022-07-28T13:48:15.800Z,2856
2022-07-28T13:49:16.669Z,3076
2022-07-28T13:50:17.475Z,2504
2022-07-28T13:51:18.966Z,2488
2022-07-28T13:52:26.332Z,2940
2022-07-28T13:53:20.648Z,3464
2022-07-28T13:54:21.477Z,3360
2022-07-28T13:55:22.744Z,5704
2022-07-28T13:56:23.221Z,6808
2022-07-28T13:57:24.144Z,3676
2022-07-28T13:58:25.036Z,3660
2022-07-28T13:59:26.851Z,2884
2022-07-28T14:00:27.793Z,3140
2022-07-28T14:01:29.581Z,2720
2022-07-28T14:02:30.286Z,2772
2022-07-28T14:03:55.856Z,2868
2022-07-28T14:04:32.106Z,2936
2022-07-28T14:05:33.802Z,7856
2022-07-28T14:07:04.951Z,3684
2022-07-28T14:08:05.877Z,2732
2022-07-28T14:09:06.752Z,3648
2022-07-28T14:10:07.713Z,3112
2022-07-28T14:11:08.476Z,2600
2022-07-28T14:12:10.276Z,2816
2022-07-28T14:13:11.443Z,3048
2022-07-28T14:14:13.579Z,4300
2022-07-28T14:15:14.358Z,5244
2022-07-28T14:16:15.150Z,8696
2022-07-28T14:17:39.961Z,6864
2022-07-28T14:18:16.717Z,7132
2022-07-28T14:19:23.541Z,6152
2022-07-28T14:20:18.519Z,4652
2022-07-28T14:21:20.333Z,5736
2022-07-28T14:22:21.903Z,2544